sensor_id;sensor_type;location;lat;lon;timestamp;pressure;altitude;pressure_sealevel;temperature;humidity
59608;BME280;45426;44.726;10.390;2023-04-29T00:01:55;100486.19;;;16.34;100.00
59608;BME280;45426;44.726;10.390;2023-04-29T00:04:24;100472.44;;;16.30;100.00
59608;BME280;45426;44.726;10.390;2023-04-29T00:06:49;100475.91;;;16.84;100.00
59608;BME280;45426;44.726;10.390;2023-04-29T00:09:15;100466.91;;;17.17;100.00
59608;BME280;45426;44.726;10.390;2023-04-29T00:11:40;100464.56;;;16.85;100.00
59608;BME280;45426;44.726;10.390;2023-04-29T00:14:05;100468.75;;;16.79;100.00
59608;BME280;45426;44.726;10.390;2023-04-29T00:16:31;100468.69;;;17.40;100.00
59608;BME280;45426;44.726;10.390;2023-04-29T00:18:57;100462.38;;;17.39;100.00
59608;BME280;45426;44.726;10.390;2023-04-29T00:21:23;100460.50;;;17.43;100.00
59608;BME280;45426;44.726;10.390;2023-04-29T00:23:51;100458.38;;;17.30;100.00
59608;BME280;45426;44.726;10.390;2023-04-29T00:26:17;100450.59;;;17.35;100.00
59608;BME280;45426;44.726;10.390;2023-04-29T00:28:42;100449.75;;;17.31;100.00
59608;BME280;45426;44.726;10.390;2023-04-29T00:31:08;100453.78;;;17.41;100.00
59608;BME280;45426;44.726;10.390;2023-04-29T00:33:33;100443.63;;;17.49;100.00
59608;BME280;45426;44.726;10.390;2023-04-29T00:35:59;100451.38;;;16.68;100.00
59608;BME280;45426;44.726;10.390;2023-04-29T00:38:26;100458.72;;;16.60;100.00
59608;BME280;45426;44.726;10.390;2023-04-29T00:40:51;100456.06;;;16.98;100.00
59608;BME280;45426;44.726;10.390;2023-04-29T00:43:17;100454.06;;;17.29;100.00
59608;BME280;45426;44.726;10.390;2023-04-29T00:45:42;100468.13;;;17.64;100.00
59608;BME280;45426;44.726;10.390;2023-04-29T00:48:09;100460.66;;;17.65;100.00
59608;BME280;45426;44.726;10.390;2023-04-29T00:50:34;100458.47;;;17.40;100.00
59608;BME280;45426;44.726;10.390;2023-04-29T00:53:00;100455.53;;;17.63;100.00
59608;BME280;45426;44.726;10.390;2023-04-29T00:55:27;100450.06;;;17.63;100.00
59608;BME280;45426;44.726;10.390;2023-04-29T00:57:53;100449.91;;;17.45;100.00
59608;BME280;45426;44.726;10.390;2023-04-29T01:00:18;100448.47;;;17.59;100.00
59608;BME280;45426;44.726;10.390;2023-04-29T01:02:45;100442.22;;;17.65;100.00
59608;BME280;45426;44.726;10.390;2023-04-29T01:05:10;100442.22;;;17.62;100.00
59608;BME280;45426;44.726;10.390;2023-04-29T01:10:38;100428.78;;;17.53;100.00
59608;BME280;45426;44.726;10.390;2023-04-29T01:13:09;100427.34;;;17.70;100.00
59608;BME280;45426;44.726;10.390;2023-04-29T01:15:48;100431.34;;;17.80;100.00
59608;BME280;45426;44.726;10.390;2023-04-29T01:18:34;100419.22;;;17.36;100.00
59608;BME280;45426;44.726;10.390;2023-04-29T01:21:01;100422.72;;;16.62;100.00
59608;BME280;45426;44.726;10.390;2023-04-29T01:23:27;100424.44;;;16.43;100.00
59608;BME280;45426;44.726;10.390;2023-04-29T01:25:53;100406.84;;;16.78;100.00
59608;BME280;45426;44.726;10.390;2023-04-29T01:28:28;100419.19;;;16.61;100.00
59608;BME280;45426;44.726;10.390;2023-04-29T01:31:14;100433.38;;;16.67;100.00
59608;BME280;45426;44.726;10.390;2023-04-29T01:36:33;100416.75;;;17.24;100.00
59608;BME280;45426;44.726;10.390;2023-04-29T01:39:13;100407.59;;;16.75;100.00
59608;BME280;45426;44.726;10.390;2023-04-29T01:44:07;100406.75;;;16.71;100.00
59608;BME280;45426;44.726;10.390;2023-04-29T01:46:32;100445.53;;;16.39;100.00
59608;BME280;45426;44.726;10.390;2023-04-29T01:48:58;100431.53;;;15.45;100.00
59608;BME280;45426;44.726;10.390;2023-04-29T01:51:23;100417.97;;;15.29;100.00
59608;BME280;45426;44.726;10.390;2023-04-29T01:53:49;100420.91;;;16.13;100.00
59608;BME280;45426;44.726;10.390;2023-04-29T01:56:14;100419.19;;;16.04;100.00
59608;BME280;45426;44.726;10.390;2023-04-29T01:58:40;100415.63;;;15.50;100.00
59608;BME280;45426;44.726;10.390;2023-04-29T02:01:05;100411.41;;;15.57;100.00
59608;BME280;45426;44.726;10.390;2023-04-29T02:03:31;100408.88;;;15.94;100.00
59608;BME280;45426;44.726;10.390;2023-04-29T02:05:56;100406.50;;;15.93;100.00
59608;BME280;45426;44.726;10.390;2023-04-29T02:08:22;100416.59;;;15.62;100.00
59608;BME280;45426;44.726;10.390;2023-04-29T02:10:55;100414.75;;;16.53;100.00
59608;BME280;45426;44.726;10.390;2023-04-29T02:13:20;100417.69;;;15.34;100.00
59608;BME280;45426;44.726;10.390;2023-04-29T02:15:46;100424.34;;;15.37;100.00
59608;BME280;45426;44.726;10.390;2023-04-29T02:18:12;100425.91;;;15.14;100.00
59608;BME280;45426;44.726;10.390;2023-04-29T02:20:37;100414.38;;;14.82;100.00
59608;BME280;45426;44.726;10.390;2023-04-29T02:23:03;100411.84;;;14.54;100.00
59608;BME280;45426;44.726;10.390;2023-04-29T02:25:28;100418.28;;;14.62;100.00
59608;BME280;45426;44.726;10.390;2023-04-29T02:27:53;100407.44;;;14.30;100.00
59608;BME280;45426;44.726;10.390;2023-04-29T02:30:19;100400.50;;;14.16;100.00
59608;BME280;45426;44.726;10.390;2023-04-29T02:32:44;100403.28;;;14.94;100.00
59608;BME280;45426;44.726;10.390;2023-04-29T02:35:09;100396.66;;;15.65;100.00
59608;BME280;45426;44.726;10.390;2023-04-29T02:37:36;100396.66;;;15.65;100.00
59608;BME280;45426;44.726;10.390;2023-04-29T02:40:02;100398.31;;;15.23;100.00
59608;BME280;45426;44.726;10.390;2023-04-29T02:42:28;100396.84;;;15.29;100.00
59608;BME280;45426;44.726;10.390;2023-04-29T02:44:53;100398.19;;;15.16;100.00
59608;BME280;45426;44.726;10.390;2023-04-29T02:47:18;100399.44;;;15.91;100.00
59608;BME280;45426;44.726;10.390;2023-04-29T02:49:44;100410.44;;;15.95;100.00
59608;BME280;45426;44.726;10.390;2023-04-29T02:52:09;100422.84;;;15.62;100.00
59608;BME280;45426;44.726;10.390;2023-04-29T02:54:35;100427.53;;;15.39;100.00
59608;BME280;45426;44.726;10.390;2023-04-29T02:57:00;100435.81;;;14.80;100.00
59608;BME280;45426;44.726;10.390;2023-04-29T02:59:26;100433.66;;;14.89;100.00
59608;BME280;45426;44.726;10.390;2023-04-29T03:01:51;100429.75;;;15.10;100.00
59608;BME280;45426;44.726;10.390;2023-04-29T03:04:18;100436.78;;;14.52;100.00
59608;BME280;45426;44.726;10.390;2023-04-29T03:06:44;100447.91;;;14.24;100.00
59608;BME280;45426;44.726;10.390;2023-04-29T03:09:10;100448.47;;;13.82;100.00
59608;BME280;45426;44.726;10.390;2023-04-29T03:11:36;100440.75;;;13.68;100.00
59608;BME280;45426;44.726;10.390;2023-04-29T03:14:02;100433.88;;;13.74;100.00
59608;BME280;45426;44.726;10.390;2023-04-29T03:16:28;100429.56;;;13.42;100.00
59608;BME280;45426;44.726;10.390;2023-04-29T03:18:53;100419.00;;;13.56;100.00
59608;BME280;45426;44.726;10.390;2023-04-29T03:21:18;100422.41;;;13.85;100.00
59608;BME280;45426;44.726;10.390;2023-04-29T03:23:44;100419.34;;;13.70;100.00
59608;BME280;45426;44.726;10.390;2023-04-29T03:26:09;100405.44;;;13.75;100.00
59608;BME280;45426;44.726;10.390;2023-04-29T03:28:35;100401.47;;;14.08;100.00
59608;BME280;45426;44.726;10.390;2023-04-29T03:31:01;100415.13;;;14.08;100.00
59608;BME280;45426;44.726;10.390;2023-04-29T03:33:27;100411.94;;;13.55;100.00
59608;BME280;45426;44.726;10.390;2023-04-29T03:35:52;100408.84;;;13.88;100.00
59608;BME280;45426;44.726;10.390;2023-04-29T03:38:18;100419.50;;;14.29;100.00
59608;BME280;45426;44.726;10.390;2023-04-29T03:40:44;100420.16;;;15.20;100.00
59608;BME280;45426;44.726;10.390;2023-04-29T03:43:10;100412.69;;;15.40;100.00
59608;BME280;45426;44.726;10.390;2023-04-29T03:45:35;100412.31;;;15.64;100.00
59608;BME280;45426;44.726;10.390;2023-04-29T03:48:01;100408.47;;;15.46;100.00
59608;BME280;45426;44.726;10.390;2023-04-29T03:50:28;100398.28;;;14.58;100.00
59608;BME280;45426;44.726;10.390;2023-04-29T03:52:53;100394.53;;;14.11;100.00
59608;BME280;45426;44.726;10.390;2023-04-29T03:55:19;100403.22;;;14.52;100.00
59608;BME280;45426;44.726;10.390;2023-04-29T03:57:44;100407.09;;;15.09;100.00
59608;BME280;45426;44.726;10.390;2023-04-29T04:00:10;100398.06;;;15.55;100.00
59608;BME280;45426;44.726;10.390;2023-04-29T04:02:36;100393.84;;;13.98;100.00
59608;BME280;45426;44.726;10.390;2023-04-29T04:05:01;100401.47;;;14.08;100.00
59608;BME280;45426;44.726;10.390;2023-04-29T04:07:27;100400.16;;;14.18;100.00
59608;BME280;45426;44.726;10.390;2023-04-29T04:09:52;100408.94;;;14.63;100.00
59608;BME280;45426;44.726;10.390;2023-04-29T04:12:17;100412.06;;;14.84;100.00
59608;BME280;45426;44.726;10.390;2023-04-29T04:14:43;100414.38;;;15.48;100.00
59608;BME280;45426;44.726;10.390;2023-04-29T04:17:08;100416.88;;;15.57;100.00
59608;BME280;45426;44.726;10.390;2023-04-29T04:19:34;100422.97;;;15.46;100.00
59608;BME280;45426;44.726;10.390;2023-04-29T04:22:02;100430.72;;;14.79;100.00
59608;BME280;45426;44.726;10.390;2023-04-29T04:24:27;100428.06;;;14.63;100.00
59608;BME280;45426;44.726;10.390;2023-04-29T04:26:53;100429.69;;;14.48;100.00
59608;BME280;45426;44.726;10.390;2023-04-29T04:29:18;100428.94;;;14.51;100.00
59608;BME280;45426;44.726;10.390;2023-04-29T04:31:43;100428.34;;;14.58;100.00
59608;BME280;45426;44.726;10.390;2023-04-29T04:34:09;100429.66;;;14.83;100.00
59608;BME280;45426;44.726;10.390;2023-04-29T04:36:34;100429.22;;;15.24;100.00
59608;BME280;45426;44.726;10.390;2023-04-29T04:39:00;100432.28;;;15.42;100.00
59608;BME280;45426;44.726;10.390;2023-04-29T04:41:25;100437.94;;;15.52;100.00
59608;BME280;45426;44.726;10.390;2023-04-29T04:43:51;100442.38;;;15.38;100.00
59608;BME280;45426;44.726;10.390;2023-04-29T04:46:16;100443.41;;;15.52;100.00
59608;BME280;45426;44.726;10.390;2023-04-29T04:48:42;100448.63;;;15.61;100.00
59608;BME280;45426;44.726;10.390;2023-04-29T04:51:09;100450.72;;;15.02;100.00
59608;BME280;45426;44.726;10.390;2023-04-29T04:53:35;100449.75;;;15.14;100.00
59608;BME280;45426;44.726;10.390;2023-04-29T04:56:01;100454.63;;;14.82;100.00
59608;BME280;45426;44.726;10.390;2023-04-29T04:58:27;100448.72;;;14.80;100.00
59608;BME280;45426;44.726;10.390;2023-04-29T05:00:52;100439.00;;;14.63;100.00
59608;BME280;45426;44.726;10.390;2023-04-29T05:03:18;100440.03;;;14.39;100.00
59608;BME280;45426;44.726;10.390;2023-04-29T05:05:43;100434.25;;;14.44;100.00
59608;BME280;45426;44.726;10.390;2023-04-29T05:08:09;100435.22;;;15.10;100.00
59608;BME280;45426;44.726;10.390;2023-04-29T05:10:37;100430.69;;;15.18;100.00
59608;BME280;45426;44.726;10.390;2023-04-29T05:13:02;100441.34;;;15.23;100.00
59608;BME280;45426;44.726;10.390;2023-04-29T05:15:28;100457.16;;;15.56;100.00
59608;BME280;45426;44.726;10.390;2023-04-29T05:17:53;100448.72;;;15.88;100.00
59608;BME280;45426;44.726;10.390;2023-04-29T05:20:19;100446.44;;;15.47;100.00
59608;BME280;45426;44.726;10.390;2023-04-29T05:22:45;100437.75;;;14.99;100.00
59608;BME280;45426;44.726;10.390;2023-04-29T05:25:11;100437.13;;;15.52;100.00
59608;BME280;45426;44.726;10.390;2023-04-29T05:27:36;100444.88;;;15.69;100.00
59608;BME280;45426;44.726;10.390;2023-04-29T05:30:02;100445.81;;;16.04;100.00
59608;BME280;45426;44.726;10.390;2023-04-29T05:32:27;100432.63;;;16.40;100.00
59608;BME280;45426;44.726;10.390;2023-04-29T05:34:53;100434.47;;;16.32;100.00
59608;BME280;45426;44.726;10.390;2023-04-29T05:37:18;100446.16;;;15.76;100.00
59608;BME280;45426;44.726;10.390;2023-04-29T05:39:43;100442.13;;;16.19;100.00
59608;BME280;45426;44.726;10.390;2023-04-29T05:42:09;100445.72;;;16.54;100.00
59608;BME280;45426;44.726;10.390;2023-04-29T05:44:34;100447.19;;;16.47;100.00
59608;BME280;45426;44.726;10.390;2023-04-29T05:47:00;100443.72;;;16.20;100.00
59608;BME280;45426;44.726;10.390;2023-04-29T05:49:25;100442.13;;;16.46;100.00
59608;BME280;45426;44.726;10.390;2023-04-29T05:51:50;100434.88;;;16.61;100.00
59608;BME280;45426;44.726;10.390;2023-04-29T05:54:16;100446.47;;;15.94;100.00
59608;BME280;45426;44.726;10.390;2023-04-29T05:56:41;100452.59;;;16.14;100.00
59608;BME280;45426;44.726;10.390;2023-04-29T05:59:07;100442.78;;;16.69;100.00
59608;BME280;45426;44.726;10.390;2023-04-29T06:01:32;100456.91;;;17.02;100.00
59608;BME280;45426;44.726;10.390;2023-04-29T06:03:58;100460.75;;;17.76;100.00
59608;BME280;45426;44.726;10.390;2023-04-29T06:06:23;100462.56;;;17.57;100.00
59608;BME280;45426;44.726;10.390;2023-04-29T06:08:49;100459.97;;;16.63;100.00
59608;BME280;45426;44.726;10.390;2023-04-29T06:11:15;100464.63;;;17.26;100.00
59608;BME280;45426;44.726;10.390;2023-04-29T06:13:40;100457.22;;;16.93;100.00
59608;BME280;45426;44.726;10.390;2023-04-29T06:16:06;100466.16;;;16.29;100.00
59608;BME280;45426;44.726;10.390;2023-04-29T06:18:32;100472.97;;;16.69;100.00
59608;BME280;45426;44.726;10.390;2023-04-29T06:20:57;100461.59;;;17.01;100.00
59608;BME280;45426;44.726;10.390;2023-04-29T06:23:22;100447.44;;;16.96;100.00
59608;BME280;45426;44.726;10.390;2023-04-29T06:25:48;100448.47;;;16.54;100.00
59608;BME280;45426;44.726;10.390;2023-04-29T06:28:13;100443.63;;;16.43;100.00
59608;BME280;45426;44.726;10.390;2023-04-29T06:30:39;100432.16;;;16.34;100.00
59608;BME280;45426;44.726;10.390;2023-04-29T06:33:04;100416.75;;;16.56;100.00
59608;BME280;45426;44.726;10.390;2023-04-29T06:35:30;100410.41;;;16.48;100.00
59608;BME280;45426;44.726;10.390;2023-04-29T06:37:55;100410.19;;;16.61;100.00
59608;BME280;45426;44.726;10.390;2023-04-29T06:40:21;100418.31;;;16.54;100.00
59608;BME280;45426;44.726;10.390;2023-04-29T06:42:46;100425.78;;;17.24;100.00
59608;BME280;45426;44.726;10.390;2023-04-29T06:45:11;100446.94;;;18.13;100.00
59608;BME280;45426;44.726;10.390;2023-04-29T06:47:37;100452.63;;;18.53;100.00
59608;BME280;45426;44.726;10.390;2023-04-29T06:50:02;100457.56;;;18.92;100.00
59608;BME280;45426;44.726;10.390;2023-04-29T06:52:29;100472.13;;;19.03;100.00
59608;BME280;45426;44.726;10.390;2023-04-29T06:54:55;100474.63;;;19.94;100.00
59608;BME280;45426;44.726;10.390;2023-04-29T06:57:20;100472.09;;;20.79;100.00
59608;BME280;45426;44.726;10.390;2023-04-29T06:59:46;100457.84;;;20.91;100.00
59608;BME280;45426;44.726;10.390;2023-04-29T07:02:11;100451.69;;;22.30;100.00
59608;BME280;45426;44.726;10.390;2023-04-29T07:04:37;100454.69;;;24.50;100.00
59608;BME280;45426;44.726;10.390;2023-04-29T07:07:03;100463.09;;;24.46;100.00
59608;BME280;45426;44.726;10.390;2023-04-29T07:09:29;100469.59;;;22.56;100.00
59608;BME280;45426;44.726;10.390;2023-04-29T07:11:54;100474.66;;;22.61;100.00
59608;BME280;45426;44.726;10.390;2023-04-29T07:14:20;100472.41;;;22.11;100.00
59608;BME280;45426;44.726;10.390;2023-04-29T07:16:52;100481.22;;;21.46;100.00
59608;BME280;45426;44.726;10.390;2023-04-29T07:19:18;100481.50;;;20.92;100.00
59608;BME280;45426;44.726;10.390;2023-04-29T07:21:43;100477.94;;;20.96;100.00
59608;BME280;45426;44.726;10.390;2023-04-29T07:24:09;100478.47;;;20.51;100.00
59608;BME280;45426;44.726;10.390;2023-04-29T07:26:34;100491.16;;;20.23;100.00
59608;BME280;45426;44.726;10.390;2023-04-29T07:29:00;100489.13;;;20.45;100.00
59608;BME280;45426;44.726;10.390;2023-04-29T07:31:25;100491.47;;;20.54;100.00
59608;BME280;45426;44.726;10.390;2023-04-29T07:33:51;100487.16;;;20.46;100.00
59608;BME280;45426;44.726;10.390;2023-04-29T07:36:17;100495.03;;;20.65;100.00
59608;BME280;45426;44.726;10.390;2023-04-29T07:38:42;100498.56;;;20.69;100.00
59608;BME280;45426;44.726;10.390;2023-04-29T07:41:08;100506.84;;;20.48;100.00
59608;BME280;45426;44.726;10.390;2023-04-29T07:43:33;100507.63;;;20.66;100.00
59608;BME280;45426;44.726;10.390;2023-04-29T07:45:58;100502.13;;;20.52;100.00
59608;BME280;45426;44.726;10.390;2023-04-29T07:48:24;100518.72;;;20.34;100.00
59608;BME280;45426;44.726;10.390;2023-04-29T07:50:49;100526.59;;;20.35;100.00
59608;BME280;45426;44.726;10.390;2023-04-29T07:53:15;100517.94;;;20.41;100.00
59608;BME280;45426;44.726;10.390;2023-04-29T07:55:42;100513.97;;;20.34;100.00
59608;BME280;45426;44.726;10.390;2023-04-29T07:58:07;100516.34;;;20.36;100.00
59608;BME280;45426;44.726;10.390;2023-04-29T08:00:33;100512.81;;;20.32;100.00
59608;BME280;45426;44.726;10.390;2023-04-29T08:02:58;100515.56;;;20.35;100.00
59608;BME280;45426;44.726;10.390;2023-04-29T08:05:24;100512.44;;;20.33;100.00
59608;BME280;45426;44.726;10.390;2023-04-29T08:07:50;100528.97;;;20.05;100.00
59608;BME280;45426;44.726;10.390;2023-04-29T08:10:16;100525.06;;;20.20;100.00
59608;BME280;45426;44.726;10.390;2023-04-29T08:12:45;100531.31;;;20.39;100.00
59608;BME280;45426;44.726;10.390;2023-04-29T08:15:10;100529.75;;;20.23;100.00
59608;BME280;45426;44.726;10.390;2023-04-29T08:17:36;100519.09;;;20.54;100.00
59608;BME280;45426;44.726;10.390;2023-04-29T08:20:02;100530.16;;;20.36;100.00
59608;BME280;45426;44.726;10.390;2023-04-29T08:22:27;100532.91;;;20.36;100.00
59608;BME280;45426;44.726;10.390;2023-04-29T08:24:52;100533.28;;;20.42;100.00
59608;BME280;45426;44.726;10.390;2023-04-29T08:27:18;100534.88;;;20.32;100.00
59608;BME280;45426;44.726;10.390;2023-04-29T08:29:45;100537.63;;;20.43;100.00
59608;BME280;45426;44.726;10.390;2023-04-29T08:32:11;100544.72;;;20.62;100.00
59608;BME280;45426;44.726;10.390;2023-04-29T08:34:36;100539.59;;;20.39;100.00
59608;BME280;45426;44.726;10.390;2023-04-29T08:37:02;100534.06;;;20.53;100.00
59608;BME280;45426;44.726;10.390;2023-04-29T08:39:28;100522.22;;;20.56;100.00
59608;BME280;45426;44.726;10.390;2023-04-29T08:41:57;100518.16;;;20.97;100.00
59608;BME280;45426;44.726;10.390;2023-04-29T08:44:27;100520.84;;;21.14;100.00
59608;BME280;45426;44.726;10.390;2023-04-29T08:46:54;100513.56;;;20.58;100.00
59608;BME280;45426;44.726;10.390;2023-04-29T08:49:20;100508.44;;;20.45;100.00
59608;BME280;45426;44.726;10.390;2023-04-29T08:51:50;100504.84;;;20.59;100.00
59608;BME280;45426;44.726;10.390;2023-04-29T08:54:18;100509.97;;;20.79;100.00
59608;BME280;45426;44.726;10.390;2023-04-29T08:56:45;100503.69;;;20.74;100.00
59608;BME280;45426;44.726;10.390;2023-04-29T08:59:15;100504.06;;;20.59;100.00
59608;BME280;45426;44.726;10.390;2023-04-29T09:01:41;100503.78;;;19.81;100.00
59608;BME280;45426;44.726;10.390;2023-04-29T09:06:35;100497.38;;;20.56;100.00
59608;BME280;45426;44.726;10.390;2023-04-29T09:09:01;100496.97;;;20.65;100.00
59608;BME280;45426;44.726;10.390;2023-04-29T09:11:28;100497.47;;;20.13;100.00
59608;BME280;45426;44.726;10.390;2023-04-29T09:14:01;100493.56;;;20.03;100.00
59608;BME280;45426;44.726;10.390;2023-04-29T09:16:27;100487.91;;;20.57;100.00
59608;BME280;45426;44.726;10.390;2023-04-29T09:18:53;100491.19;;;19.87;100.00
59608;BME280;45426;44.726;10.390;2023-04-29T09:21:26;100489.97;;;20.28;100.00
59608;BME280;45426;44.726;10.390;2023-04-29T09:23:54;100492.75;;;19.95;100.00
59608;BME280;45426;44.726;10.390;2023-04-29T09:26:20;100487.53;;;20.48;100.00
59608;BME280;45426;44.726;10.390;2023-04-29T09:28:47;100499.38;;;20.55;100.00
59608;BME280;45426;44.726;10.390;2023-04-29T09:31:29;100485.56;;;20.55;100.00
59608;BME280;45426;44.726;10.390;2023-04-29T09:33:56;100489.50;;;20.72;100.00
59608;BME280;45426;44.726;10.390;2023-04-29T09:36:49;100486.81;;;20.29;100.00
59608;BME280;45426;44.726;10.390;2023-04-29T09:39:22;100491.13;;;20.45;100.00
59608;BME280;45426;44.726;10.390;2023-04-29T09:44:27;100479.66;;;20.61;100.00
59608;BME280;45426;44.726;10.390;2023-04-29T09:47:00;100476.50;;;20.48;100.00
59608;BME280;45426;44.726;10.390;2023-04-29T09:49:43;100479.72;;;19.71;100.00
59608;BME280;45426;44.726;10.390;2023-04-29T09:52:12;100473.72;;;20.55;100.00
59608;BME280;45426;44.726;10.390;2023-04-29T09:54:39;100472.94;;;20.72;100.00
59608;BME280;45426;44.726;10.390;2023-04-29T09:57:07;100471.72;;;20.73;100.00
59608;BME280;45426;44.726;10.390;2023-04-29T09:59:36;100482.88;;;20.30;100.00
59608;BME280;45426;44.726;10.390;2023-04-29T10:02:12;100473.84;;;19.72;100.00
59608;BME280;45426;44.726;10.390;2023-04-29T10:04:40;100468.69;;;20.21;100.00
59608;BME280;45426;44.726;10.390;2023-04-29T10:07:07;100464.22;;;20.70;100.00
59608;BME280;45426;44.726;10.390;2023-04-29T10:09:34;100464.16;;;20.88;100.00
59608;BME280;45426;44.726;10.390;2023-04-29T10:12:04;100467.44;;;20.65;100.00
59608;BME280;45426;44.726;10.390;2023-04-29T10:14:38;100468.16;;;20.84;100.00
59608;BME280;45426;44.726;10.390;2023-04-29T10:17:11;100457.69;;;21.17;100.00
59608;BME280;45426;44.726;10.390;2023-04-29T10:20:01;100462.81;;;21.22;100.00
59608;BME280;45426;44.726;10.390;2023-04-29T10:22:45;100455.75;;;21.13;100.00
59608;BME280;45426;44.726;10.390;2023-04-29T10:25:11;100452.84;;;21.35;100.00
59608;BME280;45426;44.726;10.390;2023-04-29T10:27:41;100448.81;;;21.50;100.00
59608;BME280;45426;44.726;10.390;2023-04-29T10:30:11;100452.28;;;21.62;100.00
59608;BME280;45426;44.726;10.390;2023-04-29T10:32:39;100450.09;;;21.35;100.00
59608;BME280;45426;44.726;10.390;2023-04-29T10:35:07;100448.47;;;21.90;100.00
59608;BME280;45426;44.726;10.390;2023-04-29T10:37:37;100440.63;;;21.88;100.00
59608;BME280;45426;44.726;10.390;2023-04-29T10:40:13;100432.44;;;22.16;100.00
59608;BME280;45426;44.726;10.390;2023-04-29T10:42:51;100430.38;;;21.82;100.00
59608;BME280;45426;44.726;10.390;2023-04-29T10:45:27;100425.00;;;22.47;100.00
59608;BME280;45426;44.726;10.390;2023-04-29T10:50:28;100421.31;;;22.19;100.00
59608;BME280;45426;44.726;10.390;2023-04-29T10:52:54;100428.59;;;22.06;100.00
59608;BME280;45426;44.726;10.390;2023-04-29T10:55:22;100436.00;;;22.54;100.00
59608;BME280;45426;44.726;10.390;2023-04-29T10:57:47;100432.97;;;22.41;100.00
59608;BME280;45426;44.726;10.390;2023-04-29T11:00:27;100416.38;;;23.54;100.00
59608;BME280;45426;44.726;10.390;2023-04-29T11:03:04;100423.44;;;23.08;100.00
59608;BME280;45426;44.726;10.390;2023-04-29T11:05:34;100418.63;;;22.81;100.00
59608;BME280;45426;44.726;10.390;2023-04-29T11:08:11;100418.06;;;22.32;100.00
59608;BME280;45426;44.726;10.390;2023-04-29T11:10:39;100427.28;;;21.76;100.00
59608;BME280;45426;44.726;10.390;2023-04-29T11:13:24;100417.88;;;22.46;100.00
59608;BME280;45426;44.726;10.390;2023-04-29T11:16:02;100421.28;;;22.26;100.00
59608;BME280;45426;44.726;10.390;2023-04-29T11:18:28;100431.53;;;22.91;100.00
59608;BME280;45426;44.726;10.390;2023-04-29T11:23:40;100420.00;;;23.51;100.00
59608;BME280;45426;44.726;10.390;2023-04-29T11:26:06;100413.72;;;23.47;100.00
59608;BME280;45426;44.726;10.390;2023-04-29T11:28:32;100414.94;;;23.69;100.00
59608;BME280;45426;44.726;10.390;2023-04-29T11:30:58;100407.53;;;23.62;100.00
59608;BME280;45426;44.726;10.390;2023-04-29T11:33:25;100407.53;;;23.62;100.00
59608;BME280;45426;44.726;10.390;2023-04-29T11:35:53;100406.84;;;23.78;100.00
59608;BME280;45426;44.726;10.390;2023-04-29T11:38:26;100396.03;;;23.40;100.00
59608;BME280;45426;44.726;10.390;2023-04-29T11:40:53;100378.66;;;23.83;100.00
59608;BME280;45426;44.726;10.390;2023-04-29T11:43:21;100391.81;;;23.05;100.00
59608;BME280;45426;44.726;10.390;2023-04-29T11:45:47;100385.38;;;23.12;100.00
59608;BME280;45426;44.726;10.390;2023-04-29T11:48:23;100392.44;;;22.85;100.00
59608;BME280;45426;44.726;10.390;2023-04-29T11:50:56;100384.22;;;23.36;100.00
59608;BME280;45426;44.726;10.390;2023-04-29T11:53:24;100396.84;;;22.83;100.00
59608;BME280;45426;44.726;10.390;2023-04-29T11:55:53;100391.72;;;23.12;100.00
59608;BME280;45426;44.726;10.390;2023-04-29T11:58:22;100389.13;;;22.98;100.00
59608;BME280;45426;44.726;10.390;2023-04-29T12:00:49;100389.75;;;22.82;100.00
59608;BME280;45426;44.726;10.390;2023-04-29T12:03:19;100383.81;;;23.11;100.00
59608;BME280;45426;44.726;10.390;2023-04-29T12:05:55;100379.50;;;23.33;100.00
59608;BME280;45426;44.726;10.390;2023-04-29T12:08:22;100384.09;;;22.62;100.00
59608;BME280;45426;44.726;10.390;2023-04-29T12:10:48;100389.38;;;22.49;100.00
59608;BME280;45426;44.726;10.390;2023-04-29T12:13:15;100392.88;;;22.19;100.00
59608;BME280;45426;44.726;10.390;2023-04-29T12:15:42;100395.38;;;22.75;100.00
59608;BME280;45426;44.726;10.390;2023-04-29T12:18:08;100384.94;;;23.40;100.00
59608;BME280;45426;44.726;10.390;2023-04-29T12:20:34;100387.41;;;22.80;100.00
59608;BME280;45426;44.726;10.390;2023-04-29T12:23:17;100388.97;;;23.59;100.00
59608;BME280;45426;44.726;10.390;2023-04-29T12:25:48;100385.34;;;23.62;100.00
59608;BME280;45426;44.726;10.390;2023-04-29T12:28:15;100382.47;;;24.13;100.00
59608;BME280;45426;44.726;10.390;2023-04-29T12:30:43;100378.41;;;23.98;100.00
59608;BME280;45426;44.726;10.390;2023-04-29T12:33:09;100378.50;;;22.93;100.00
59608;BME280;45426;44.726;10.390;2023-04-29T12:35:36;100370.84;;;23.55;100.00
59608;BME280;45426;44.726;10.390;2023-04-29T12:38:01;100370.84;;;23.98;100.00
59608;BME280;45426;44.726;10.390;2023-04-29T12:40:27;100361.03;;;23.94;100.00
59608;BME280;45426;44.726;10.390;2023-04-29T12:42:53;100364.31;;;23.41;100.00
59608;BME280;45426;44.726;10.390;2023-04-29T12:45:32;100376.63;;;23.40;100.00
59608;BME280;45426;44.726;10.390;2023-04-29T12:47:59;100365.88;;;23.66;100.00
59608;BME280;45426;44.726;10.390;2023-04-29T12:50:35;100371.66;;;23.52;100.00